Meramec River (Missouri), Steelville (07013000)

StateMissouriLatestHigh (1380 cfs)
RiverMeramec RiverRatingObservedEstimated
Updated2020-02-25 22:00 (50 minutes ago)Flood - The river is flooding. Obstacles can be treacherous or deadly. The river should be avoided at this stage for casual trips and definitely for the inexperienced. Trips should be attempted only with protective gear and equipment.Flood(none)2133
Discharge1380 cfs (median: 424 cfs)High - The river is high and potentially dangerous, especially for the young and / or inexperienced. Normal stream obstacles are sometimes difficult to navigate. Extended distances can be attempted, but canoe travel may not be advisable.High(none)983
Height3.65 feetGood - Conditions are ideal for a canoe or kayak. Boats typically will drag on fewer than one-quarter of riffles, if at all, and portages are unnecessary or rare. Normal float lengths can be attempted without a problem.Good(none)523
TrendSteady (rising over 24 hours)Low - River is low but can still be floated. Some riffles are okay but most come with significant dragging and might need a portage. Float lengths should be reduced to accommodate low flow, dragging, and portages.Low(none)337
USGSExternal icon USGS Site (External icon Google Maps)Poor - River is too low to float comfortably. Most or all riffles will drag or must be portaged and some obstacles (such as slick shelf rock) cause undue problems. Avoid the river at this stage for casual paddling trips.Poor(none)178

Trending Data

Plot Image

Trips for Meramec River (Missouri), Steelville (07013000)

DateStartEndDistanceConditionDischargeHeightFishingDetails

A total of 0 rows are displayed.

Condition Descriptions

Fishing Conditions

Fish Species

Notes

Classic Trip List

The classic River Trips application is still available for use. It is updated with the new system using a data retrofit. It is no longer maintained. The original River Trips application is no longer updated (as of 1 Dec 2016) but can be checked for errors or for the condition of the data before it was converted to the new system.

Gauge Data Table

ObservationHeightDischargeMaximum
Discharge
Minimum
Discharge
Mean
Discharge
P05P10P20P25P50
(Median)
P75P80P90P95
2020-02-25 22:00 3.65 1380 19200 (2018) 124 (1965) 988 147 173 222 250 424 725 936 1760 3180
2020-02-25 21:30 3.65 1380 19200 (2018) 124 (1965) 988 147 173 222 250 424 725 936 1760 3180
2020-02-25 21:00 3.64 1380 19200 (2018) 124 (1965) 988 147 173 222 250 424 725 936 1760 3180
2020-02-25 20:30 3.66 1390 19200 (2018) 124 (1965) 988 147 173 222 250 424 725 936 1760 3180
2020-02-25 20:00 3.66 1390 19200 (2018) 124 (1965) 988 147 173 222 250 424 725 936 1760 3180
2020-02-25 19:30 3.66 1390 19200 (2018) 124 (1965) 988 147 173 222 250 424 725 936 1760 3180
2020-02-25 19:00 3.65 1380 19200 (2018) 124 (1965) 988 147 173 222 250 424 725 936 1760 3180
2020-02-25 18:30 3.65 1380 19200 (2018) 124 (1965) 988 147 173 222 250 424 725 936 1760 3180
2020-02-25 18:00 3.65 1380 19200 (2018) 124 (1965) 988 147 173 222 250 424 725 936 1760 3180
2020-02-25 17:30 3.63 1370 19200 (2018) 124 (1965) 988 147 173 222 250 424 725 936 1760 3180
2020-02-25 17:00 3.62 1360 19200 (2018) 124 (1965) 988 147 173 222 250 424 725 936 1760 3180
2020-02-25 16:30 3.60 1350 19200 (2018) 124 (1965) 988 147 173 222 250 424 725 936 1760 3180
2020-02-25 16:00 3.61 1360 19200 (2018) 124 (1965) 988 147 173 222 250 424 725 936 1760 3180
2020-02-25 15:30 3.58 1340 19200 (2018) 124 (1965) 988 147 173 222 250 424 725 936 1760 3180
2020-02-25 15:00 3.57 1330 19200 (2018) 124 (1965) 988 147 173 222 250 424 725 936 1760 3180
2020-02-25 14:30 3.55 1320 19200 (2018) 124 (1965) 988 147 173 222 250 424 725 936 1760 3180
2020-02-25 14:00 3.54 1310 19200 (2018) 124 (1965) 988 147 173 222 250 424 725 936 1760 3180
2020-02-25 13:30 3.54 1310 19200 (2018) 124 (1965) 988 147 173 222 250 424 725 936 1760 3180
2020-02-25 13:00 3.53 1300 19200 (2018) 124 (1965) 988 147 173 222 250 424 725 936 1760 3180
2020-02-25 12:30 3.52 1300 19200 (2018) 124 (1965) 988 147 173 222 250 424 725 936 1760 3180
2020-02-25 12:00 3.51 1290 19200 (2018) 124 (1965) 988 147 173 222 250 424 725 936 1760 3180
2020-02-25 11:30 3.49 1280 19200 (2018) 124 (1965) 988 147 173 222 250 424 725 936 1760 3180
2020-02-25 11:00 3.49 1280 19200 (2018) 124 (1965) 988 147 173 222 250 424 725 936 1760 3180
2020-02-25 10:30 3.47 1260 19200 (2018) 124 (1965) 988 147 173 222 250 424 725 936 1760 3180
2020-02-25 10:00 3.45 1250 19200 (2018) 124 (1965) 988 147 173 222 250 424 725 936 1760 3180
2020-02-25 09:30 3.45 1250 19200 (2018) 124 (1965) 988 147 173 222 250 424 725 936 1760 3180
2020-02-25 09:00 3.42 1230 19200 (2018) 124 (1965) 988 147 173 222 250 424 725 936 1760 3180
2020-02-25 08:30 3.41 1220 19200 (2018) 124 (1965) 988 147 173 222 250 424 725 936 1760 3180
2020-02-25 08:00 3.40 1220 19200 (2018) 124 (1965) 988 147 173 222 250 424 725 936 1760 3180
2020-02-25 07:30 3.38 1200 19200 (2018) 124 (1965) 988 147 173 222 250 424 725 936 1760 3180
2020-02-25 07:00 3.38 1200 19200 (2018) 124 (1965) 988 147 173 222 250 424 725 936 1760 3180
2020-02-25 06:30 3.35 1180 19200 (2018) 124 (1965) 988 147 173 222 250 424 725 936 1760 3180
2020-02-25 06:00 3.35 1180 19200 (2018) 124 (1965) 988 147 173 222 250 424 725 936 1760 3180
2020-02-25 05:30 3.34 1180 19200 (2018) 124 (1965) 988 147 173 222 250 424 725 936 1760 3180
2020-02-25 05:00 3.33 1170 19200 (2018) 124 (1965) 988 147 173 222 250 424 725 936 1760 3180
2020-02-25 04:30 3.32 1170 19200 (2018) 124 (1965) 988 147 173 222 250 424 725 936 1760 3180
2020-02-25 04:00 3.31 1160 19200 (2018) 124 (1965) 988 147 173 222 250 424 725 936 1760 3180
2020-02-25 03:30 3.32 1170 19200 (2018) 124 (1965) 988 147 173 222 250 424 725 936 1760 3180
2020-02-25 03:00 3.29 1150 19200 (2018) 124 (1965) 988 147 173 222 250 424 725 936 1760 3180
2020-02-25 02:30 3.29 1150 19200 (2018) 124 (1965) 988 147 173 222 250 424 725 936 1760 3180
2020-02-25 02:00 3.25 1120 19200 (2018) 124 (1965) 988 147 173 222 250 424 725 936 1760 3180
2020-02-25 01:30 3.21 1100 19200 (2018) 124 (1965) 988 147 173 222 250 424 725 936 1760 3180
2020-02-25 01:00 3.15 1060 19200 (2018) 124 (1965) 988 147 173 222 250 424 725 936 1760 3180
2020-02-25 00:30 3.07 1010 19200 (2018) 124 (1965) 988 147 173 222 250 424 725 936 1760 3180
2020-02-25 00:00 2.99 962 19200 (2018) 124 (1965) 988 147 173 222 250 424 725 936 1760 3180
2020-02-24 23:30 2.90 911 24000 (1985) 119 (1934) 986 147 173 214 243 390 742 979 1430 4350
2020-02-24 23:00 2.82 866 24000 (1985) 119 (1934) 986 147 173 214 243 390 742 979 1430 4350
2020-02-24 22:30 2.79 850 24000 (1985) 119 (1934) 986 147 173 214 243 390 742 979 1430 4350
2020-02-24 22:00 2.75 828 24000 (1985) 119 (1934) 986 147 173 214 243 390 742 979 1430 4350
2020-02-24 21:30 2.72 812 24000 (1985) 119 (1934) 986 147 173 214 243 390 742 979 1430 4350
2020-02-24 21:00 2.70 801 24000 (1985) 119 (1934) 986 147 173 214 243 390 742 979 1430 4350
2020-02-24 20:30 2.68 790 24000 (1985) 119 (1934) 986 147 173 214 243 390 742 979 1430 4350
2020-02-24 20:00 2.68 790 24000 (1985) 119 (1934) 986 147 173 214 243 390 742 979 1430 4350
2020-02-24 19:30 2.63 763 24000 (1985) 119 (1934) 986 147 173 214 243 390 742 979 1430 4350
2020-02-24 19:00 2.61 753 24000 (1985) 119 (1934) 986 147 173 214 243 390 742 979 1430 4350
2020-02-24 18:30 2.59 742 24000 (1985) 119 (1934) 986 147 173 214 243 390 742 979 1430 4350
2020-02-24 18:00 2.57 731 24000 (1985) 119 (1934) 986 147 173 214 243 390 742 979 1430 4350
2020-02-24 17:30 2.55 720 24000 (1985) 119 (1934) 986 147 173 214 243 390 742 979 1430 4350
2020-02-24 17:00 2.53 709 24000 (1985) 119 (1934) 986 147 173 214 243 390 742 979 1430 4350
2020-02-24 16:30 2.49 687 24000 (1985) 119 (1934) 986 147 173 214 243 390 742 979 1430 4350
2020-02-24 16:00 2.49 687 24000 (1985) 119 (1934) 986 147 173 214 243 390 742 979 1430 4350
2020-02-24 15:30 2.48 681 24000 (1985) 119 (1934) 986 147 173 214 243 390 742 979 1430 4350
2020-02-24 15:00 2.47 676 24000 (1985) 119 (1934) 986 147 173 214 243 390 742 979 1430 4350
2020-02-24 14:30 2.46 671 24000 (1985) 119 (1934) 986 147 173 214 243 390 742 979 1430 4350
2020-02-24 14:00 2.44 660 24000 (1985) 119 (1934) 986 147 173 214 243 390 742 979 1430 4350
2020-02-24 13:30 2.44 660 24000 (1985) 119 (1934) 986 147 173 214 243 390 742 979 1430 4350
2020-02-24 13:00 2.43 654 24000 (1985) 119 (1934) 986 147 173 214 243 390 742 979 1430 4350
2020-02-24 12:30 2.42 649 24000 (1985) 119 (1934) 986 147 173 214 243 390 742 979 1430 4350
2020-02-24 12:00 2.42 649 24000 (1985) 119 (1934) 986 147 173 214 243 390 742 979 1430 4350
2020-02-24 11:30 2.40 639 24000 (1985) 119 (1934) 986 147 173 214 243 390 742 979 1430 4350
2020-02-24 11:00 2.40 639 24000 (1985) 119 (1934) 986 147 173 214 243 390 742 979 1430 4350
2020-02-24 10:30 2.40 639 24000 (1985) 119 (1934) 986 147 173 214 243 390 742 979 1430 4350
2020-02-24 10:00 2.40 639 24000 (1985) 119 (1934) 986 147 173 214 243 390 742 979 1430 4350
2020-02-24 09:30 2.38 628 24000 (1985) 119 (1934) 986 147 173 214 243 390 742 979 1430 4350
2020-02-24 09:00 2.39 633 24000 (1985) 119 (1934) 986 147 173 214 243 390 742 979 1430 4350
2020-02-24 08:30 2.38 628 24000 (1985) 119 (1934) 986 147 173 214 243 390 742 979 1430 4350
2020-02-24 08:00 2.39 633 24000 (1985) 119 (1934) 986 147 173 214 243 390 742 979 1430 4350
2020-02-24 07:30 2.38 628 24000 (1985) 119 (1934) 986 147 173 214 243 390 742 979 1430 4350
2020-02-24 07:00 2.38 628 24000 (1985) 119 (1934) 986 147 173 214 243 390 742 979 1430 4350
2020-02-24 06:30 2.38 628 24000 (1985) 119 (1934) 986 147 173 214 243 390 742 979 1430 4350
2020-02-24 06:00 2.37 623 24000 (1985) 119 (1934) 986 147 173 214 243 390 742 979 1430 4350
2020-02-24 05:30 2.37 623 24000 (1985) 119 (1934) 986 147 173 214 243 390 742 979 1430 4350
2020-02-24 05:00 2.37 623 24000 (1985) 119 (1934) 986 147 173 214 243 390 742 979 1430 4350
2020-02-24 04:30 2.37 623 24000 (1985) 119 (1934) 986 147 173 214 243 390 742 979 1430 4350
2020-02-24 04:00 2.36 617 24000 (1985) 119 (1934) 986 147 173 214 243 390 742 979 1430 4350
2020-02-24 03:30 2.35 612 24000 (1985) 119 (1934) 986 147 173 214 243 390 742 979 1430 4350
2020-02-24 03:00 2.34 607 24000 (1985) 119 (1934) 986 147 173 214 243 390 742 979 1430 4350
2020-02-24 02:30 2.33 602 24000 (1985) 119 (1934) 986 147 173 214 243 390 742 979 1430 4350
2020-02-24 02:00 2.33 602 24000 (1985) 119 (1934) 986 147 173 214 243 390 742 979 1430 4350
2020-02-24 01:30 2.32 597 24000 (1985) 119 (1934) 986 147 173 214 243 390 742 979 1430 4350
2020-02-24 01:00 2.32 597 24000 (1985) 119 (1934) 986 147 173 214 243 390 742 979 1430 4350
2020-02-24 00:30 2.32 597 24000 (1985) 119 (1934) 986 147 173 214 243 390 742 979 1430 4350
2020-02-24 00:00 2.32 597 24000 (1985) 119 (1934) 986 147 173 214 243 390 742 979 1430 4350

A total of 93 rows are displayed for years 1923 through 2019.